Aeroporto :
LOGIN :

Iscrizione | Disclaimer

   EN    FR    IT 

 










Sommario :    VFR   VFR Marginale   IFR   IFR Intensivo   IFR Molto Intensivo
Visibilità : 
Base nubi : 
>= 8 km
>= 3000ft
5 / 8 km
1000 / 3000 ft
1500m / 5 km
500 / 1000 ft
800 / 1500m
200 / 500 ft
< 800m
< 200 ft
Simboli :   Temporali  Nebbia  Neve Forte  Precipitazioni Forti  Vento > 20 kt
SIGMETs :   Varie  Temporali  Ghiacco  Turbolenza  Onda orograficha  Ceneri Vulcaniche






- Altitudine del aeroporto : 348 ft
- Codice IATA : TSR


LRTR - Timisoara

ULTIMO METAR :
  • 230800Z VRB02KT CAVOK 29/18 Q1014

METARs OBSOLETI :
  • 230730Z 14004KT 090V190 CAVOK 28/20 Q1014
  • 230700Z 12003KT 080V170 CAVOK 27/19 Q1014
  • 230630Z 11005KT 080V150 CAVOK 25/20 Q1014
  • 230600Z 10005KT CAVOK 24/20 Q1014
  • 230530Z 10006KT CAVOK 22/21 Q1014
  • 230500Z 10006KT CAVOK 21/21 Q1014
  • 230430Z 09005KT CAVOK 20/20 Q1013
  • 230400Z 07005KT CAVOK 19/19 Q1013
  • 230330Z 06003KT 9999 MIFG NSC 18/18 Q1013

TAF TAF LRTR
Valido dal 23 a 06 ore il 24 a 06 ore UTC


230500Z 2306/2406 09006KT CAVOK
TEMPO 2311/2317 VRB15G25KT 5000 -TSRA SCT035CB



MetMap, La meteo Aeronautica in un colpo d'occhio ! - Copyright ORBIFLY Dicembre 2007 - Disclaimer

ORBIFLY MET'MAP TEAM :

Programmazione e sviluppo : Alexandra Zaïnal
Concezione : Baudouin d'Aumeries
Supporto tecnico e logistico : Manuel Goepfert
Aiuto : Marc-Olivier Méhu
Aiuto per la traduzione : Arnaldo La Scala




FONTI E CREDITI :

   NOAA